sensor_id;sensor_type;location;lat;lon;timestamp;temperature;humidity
41447;DHT22;27185;52.040;4.490;2023-11-21T00:01:26;9.30;99.90
41447;DHT22;27185;52.040;4.490;2023-11-21T00:04:12;9.40;99.90
41447;DHT22;27185;52.040;4.490;2023-11-21T00:06:58;9.50;99.90
41447;DHT22;27185;52.040;4.490;2023-11-21T00:09:43;9.50;99.90
41447;DHT22;27185;52.040;4.490;2023-11-21T00:12:29;9.60;99.90
41447;DHT22;27185;52.040;4.490;2023-11-21T00:15:14;9.70;99.90
41447;DHT22;27185;52.040;4.490;2023-11-21T00:18:00;9.80;99.90
41447;DHT22;27185;52.040;4.490;2023-11-21T00:20:46;9.80;99.90
41447;DHT22;27185;52.040;4.490;2023-11-21T00:23:31;9.90;99.90
41447;DHT22;27185;52.040;4.490;2023-11-21T00:26:17;10.00;99.90
41447;DHT22;27185;52.040;4.490;2023-11-21T00:29:03;10.00;99.90
41447;DHT22;27185;52.040;4.490;2023-11-21T00:31:48;10.10;99.90
41447;DHT22;27185;52.040;4.490;2023-11-21T00:34:34;10.20;99.90
41447;DHT22;27185;52.040;4.490;2023-11-21T00:37:20;10.20;99.90
41447;DHT22;27185;52.040;4.490;2023-11-21T00:40:06;10.30;99.90
41447;DHT22;27185;52.040;4.490;2023-11-21T00:42:51;10.30;99.90
41447;DHT22;27185;52.040;4.490;2023-11-21T00:45:37;10.40;99.90
41447;DHT22;27185;52.040;4.490;2023-11-21T00:48:23;10.40;99.90
41447;DHT22;27185;52.040;4.490;2023-11-21T00:51:08;10.40;99.90
41447;DHT22;27185;52.040;4.490;2023-11-21T00:53:54;10.50;99.90
41447;DHT22;27185;52.040;4.490;2023-11-21T00:56:39;10.50;99.90
41447;DHT22;27185;52.040;4.490;2023-11-21T00:59:25;10.60;99.90
41447;DHT22;27185;52.040;4.490;2023-11-21T01:02:11;10.60;99.90
41447;DHT22;27185;52.040;4.490;2023-11-21T01:04:56;10.60;99.90
41447;DHT22;27185;52.040;4.490;2023-11-21T01:07:42;10.60;99.90
41447;DHT22;27185;52.040;4.490;2023-11-21T01:10:28;10.60;99.90
41447;DHT22;27185;52.040;4.490;2023-11-21T01:13:14;10.60;99.90
41447;DHT22;27185;52.040;4.490;2023-11-21T01:16:01;10.70;99.90
41447;DHT22;27185;52.040;4.490;2023-11-21T01:18:47;10.70;99.90
41447;DHT22;27185;52.040;4.490;2023-11-21T01:21:32;10.70;99.90
41447;DHT22;27185;52.040;4.490;2023-11-21T01:24:19;10.70;99.90
41447;DHT22;27185;52.040;4.490;2023-11-21T01:27:05;10.80;99.90
41447;DHT22;27185;52.040;4.490;2023-11-21T01:29:51;10.80;99.90
41447;DHT22;27185;52.040;4.490;2023-11-21T01:32:39;10.90;99.90
41447;DHT22;27185;52.040;4.490;2023-11-21T01:35:25;10.90;99.90
41447;DHT22;27185;52.040;4.490;2023-11-21T01:38:10;10.90;99.90
41447;DHT22;27185;52.040;4.490;2023-11-21T01:40:56;10.90;99.90
41447;DHT22;27185;52.040;4.490;2023-11-21T01:43:41;11.00;99.90
41447;DHT22;27185;52.040;4.490;2023-11-21T01:46:27;11.00;99.90
41447;DHT22;27185;52.040;4.490;2023-11-21T01:49:12;11.00;99.90
41447;DHT22;27185;52.040;4.490;2023-11-21T01:52:00;11.00;99.90
41447;DHT22;27185;52.040;4.490;2023-11-21T01:54:47;11.00;99.90
41447;DHT22;27185;52.040;4.490;2023-11-21T01:57:33;11.00;99.90
41447;DHT22;27185;52.040;4.490;2023-11-21T02:00:18;11.00;99.90
41447;DHT22;27185;52.040;4.490;2023-11-21T02:03:04;11.00;99.90
41447;DHT22;27185;52.040;4.490;2023-11-21T02:05:53;11.10;99.90
41447;DHT22;27185;52.040;4.490;2023-11-21T02:08:40;11.10;99.90
41447;DHT22;27185;52.040;4.490;2023-11-21T02:11:29;11.10;99.90
41447;DHT22;27185;52.040;4.490;2023-11-21T02:14:15;11.10;99.90
41447;DHT22;27185;52.040;4.490;2023-11-21T02:17:02;11.10;99.90
41447;DHT22;27185;52.040;4.490;2023-11-21T02:19:49;11.10;99.90
41447;DHT22;27185;52.040;4.490;2023-11-21T02:22:39;11.10;99.90
41447;DHT22;27185;52.040;4.490;2023-11-21T02:25:26;11.10;99.90
41447;DHT22;27185;52.040;4.490;2023-11-21T02:28:15;11.20;99.90
41447;DHT22;27185;52.040;4.490;2023-11-21T02:31:03;11.20;99.90
41447;DHT22;27185;52.040;4.490;2023-11-21T02:33:50;11.20;99.90
41447;DHT22;27185;52.040;4.490;2023-11-21T02:36:35;11.20;99.90
41447;DHT22;27185;52.040;4.490;2023-11-21T02:39:21;11.30;99.90
41447;DHT22;27185;52.040;4.490;2023-11-21T02:42:09;11.30;99.90
41447;DHT22;27185;52.040;4.490;2023-11-21T02:44:55;11.30;99.90
41447;DHT22;27185;52.040;4.490;2023-11-21T02:47:45;11.30;99.90
41447;DHT22;27185;52.040;4.490;2023-11-21T02:50:31;11.40;99.90
41447;DHT22;27185;52.040;4.490;2023-11-21T02:53:17;11.40;99.90
41447;DHT22;27185;52.040;4.490;2023-11-21T02:56:03;11.50;99.90
41447;DHT22;27185;52.040;4.490;2023-11-21T02:58:48;11.50;99.90
41447;DHT22;27185;52.040;4.490;2023-11-21T03:01:34;11.50;99.90
41447;DHT22;27185;52.040;4.490;2023-11-21T03:04:20;11.50;99.90
41447;DHT22;27185;52.040;4.490;2023-11-21T03:07:06;11.60;99.90
41447;DHT22;27185;52.040;4.490;2023-11-21T03:09:52;11.60;99.90
41447;DHT22;27185;52.040;4.490;2023-11-21T03:12:38;11.60;99.90
41447;DHT22;27185;52.040;4.490;2023-11-21T03:15:24;11.70;99.90
41447;DHT22;27185;52.040;4.490;2023-11-21T03:18:09;11.70;99.90
41447;DHT22;27185;52.040;4.490;2023-11-21T03:20:55;11.70;99.90
41447;DHT22;27185;52.040;4.490;2023-11-21T03:23:40;11.70;99.90
41447;DHT22;27185;52.040;4.490;2023-11-21T03:26:26;11.70;99.90
41447;DHT22;27185;52.040;4.490;2023-11-21T03:29:12;11.70;99.90
41447;DHT22;27185;52.040;4.490;2023-11-21T03:31:58;11.70;99.90
41447;DHT22;27185;52.040;4.490;2023-11-21T03:34:57;11.70;99.90
41447;DHT22;27185;52.040;4.490;2023-11-21T03:37:43;11.70;99.90
41447;DHT22;27185;52.040;4.490;2023-11-21T03:40:29;11.70;99.90
41447;DHT22;27185;52.040;4.490;2023-11-21T03:43:14;11.70;99.90
41447;DHT22;27185;52.040;4.490;2023-11-21T03:46:00;11.70;99.90
41447;DHT22;27185;52.040;4.490;2023-11-21T03:48:46;11.70;99.90
41447;DHT22;27185;52.040;4.490;2023-11-21T03:51:31;11.70;99.90
41447;DHT22;27185;52.040;4.490;2023-11-21T03:54:17;11.70;99.90
41447;DHT22;27185;52.040;4.490;2023-11-21T03:57:04;11.70;99.90
41447;DHT22;27185;52.040;4.490;2023-11-21T03:59:49;11.70;99.90
41447;DHT22;27185;52.040;4.490;2023-11-21T04:02:35;11.80;99.90
41447;DHT22;27185;52.040;4.490;2023-11-21T04:05:21;11.80;99.90
41447;DHT22;27185;52.040;4.490;2023-11-21T04:08:07;11.80;99.90
41447;DHT22;27185;52.040;4.490;2023-11-21T04:10:53;11.80;99.90
41447;DHT22;27185;52.040;4.490;2023-11-21T04:13:40;11.80;99.90
41447;DHT22;27185;52.040;4.490;2023-11-21T04:16:27;11.80;99.90
41447;DHT22;27185;52.040;4.490;2023-11-21T04:19:13;11.80;99.90
41447;DHT22;27185;52.040;4.490;2023-11-21T04:22:02;11.90;99.90
41447;DHT22;27185;52.040;4.490;2023-11-21T04:24:48;11.90;99.90
41447;DHT22;27185;52.040;4.490;2023-11-21T04:27:34;11.90;99.90
41447;DHT22;27185;52.040;4.490;2023-11-21T04:30:20;12.00;99.90
41447;DHT22;27185;52.040;4.490;2023-11-21T04:33:09;12.00;99.90
41447;DHT22;27185;52.040;4.490;2023-11-21T04:35:54;12.00;99.90
41447;DHT22;27185;52.040;4.490;2023-11-21T04:38:41;12.00;99.90
41447;DHT22;27185;52.040;4.490;2023-11-21T04:41:26;12.00;99.90
41447;DHT22;27185;52.040;4.490;2023-11-21T04:44:12;12.00;99.90
41447;DHT22;27185;52.040;4.490;2023-11-21T04:46:57;12.00;99.90
41447;DHT22;27185;52.040;4.490;2023-11-21T04:49:43;12.10;99.90
41447;DHT22;27185;52.040;4.490;2023-11-21T04:52:29;12.10;99.90
41447;DHT22;27185;52.040;4.490;2023-11-21T04:55:15;12.10;99.90
41447;DHT22;27185;52.040;4.490;2023-11-21T04:58:03;12.10;99.90
41447;DHT22;27185;52.040;4.490;2023-11-21T05:00:49;12.10;99.90
41447;DHT22;27185;52.040;4.490;2023-11-21T05:03:35;12.10;99.90
41447;DHT22;27185;52.040;4.490;2023-11-21T05:06:21;12.00;99.90
41447;DHT22;27185;52.040;4.490;2023-11-21T05:09:06;12.00;99.90
41447;DHT22;27185;52.040;4.490;2023-11-21T05:11:58;11.90;99.90
41447;DHT22;27185;52.040;4.490;2023-11-21T05:14:43;11.90;99.90
41447;DHT22;27185;52.040;4.490;2023-11-21T05:17:29;11.80;99.90
41447;DHT22;27185;52.040;4.490;2023-11-21T05:20:15;11.70;99.90
41447;DHT22;27185;52.040;4.490;2023-11-21T05:23:03;11.70;99.90
41447;DHT22;27185;52.040;4.490;2023-11-21T05:25:48;11.60;99.90
41447;DHT22;27185;52.040;4.490;2023-11-21T05:28:34;11.60;99.90
41447;DHT22;27185;52.040;4.490;2023-11-21T05:31:19;11.50;99.90
41447;DHT22;27185;52.040;4.490;2023-11-21T05:34:05;11.50;99.90
41447;DHT22;27185;52.040;4.490;2023-11-21T05:36:50;11.50;99.90
41447;DHT22;27185;52.040;4.490;2023-11-21T05:39:36;11.50;99.90
41447;DHT22;27185;52.040;4.490;2023-11-21T05:42:22;11.50;99.90
41447;DHT22;27185;52.040;4.490;2023-11-21T05:45:09;11.50;99.90
41447;DHT22;27185;52.040;4.490;2023-11-21T05:47:55;11.50;99.90
41447;DHT22;27185;52.040;4.490;2023-11-21T05:50:42;11.50;99.90
41447;DHT22;27185;52.040;4.490;2023-11-21T05:53:28;11.60;99.90
41447;DHT22;27185;52.040;4.490;2023-11-21T05:56:13;11.70;99.90
41447;DHT22;27185;52.040;4.490;2023-11-21T05:58:59;11.70;99.90
41447;DHT22;27185;52.040;4.490;2023-11-21T06:01:45;11.80;99.90
41447;DHT22;27185;52.040;4.490;2023-11-21T06:04:31;11.80;99.90
41447;DHT22;27185;52.040;4.490;2023-11-21T06:07:17;11.90;99.90
41447;DHT22;27185;52.040;4.490;2023-11-21T06:10:06;12.00;99.90
41447;DHT22;27185;52.040;4.490;2023-11-21T06:12:55;12.10;99.90
41447;DHT22;27185;52.040;4.490;2023-11-21T06:15:41;12.10;99.90
41447;DHT22;27185;52.040;4.490;2023-11-21T06:18:27;12.20;99.90
41447;DHT22;27185;52.040;4.490;2023-11-21T06:21:13;12.20;99.90
41447;DHT22;27185;52.040;4.490;2023-11-21T06:23:59;12.20;99.90
41447;DHT22;27185;52.040;4.490;2023-11-21T06:26:44;12.30;99.90
41447;DHT22;27185;52.040;4.490;2023-11-21T06:29:31;12.30;99.90
41447;DHT22;27185;52.040;4.490;2023-11-21T06:32:17;12.30;99.90
41447;DHT22;27185;52.040;4.490;2023-11-21T06:35:03;12.20;99.90
41447;DHT22;27185;52.040;4.490;2023-11-21T06:37:49;12.10;99.90
41447;DHT22;27185;52.040;4.490;2023-11-21T06:40:36;12.10;99.90
41447;DHT22;27185;52.040;4.490;2023-11-21T06:43:22;12.10;99.90
41447;DHT22;27185;52.040;4.490;2023-11-21T06:46:07;12.00;99.90
41447;DHT22;27185;52.040;4.490;2023-11-21T06:48:54;12.00;99.90
41447;DHT22;27185;52.040;4.490;2023-11-21T06:51:39;11.90;99.90
41447;DHT22;27185;52.040;4.490;2023-11-21T06:54:26;11.90;99.90
41447;DHT22;27185;52.040;4.490;2023-11-21T06:57:12;11.90;99.90
41447;DHT22;27185;52.040;4.490;2023-11-21T06:59:57;11.80;99.90
41447;DHT22;27185;52.040;4.490;2023-11-21T07:02:44;11.80;99.90
41447;DHT22;27185;52.040;4.490;2023-11-21T07:05:30;11.80;99.90
41447;DHT22;27185;52.040;4.490;2023-11-21T07:08:15;11.90;99.90
41447;DHT22;27185;52.040;4.490;2023-11-21T07:11:01;11.90;99.90
41447;DHT22;27185;52.040;4.490;2023-11-21T07:13:48;11.90;99.90
41447;DHT22;27185;52.040;4.490;2023-11-21T07:16:35;12.00;99.90
41447;DHT22;27185;52.040;4.490;2023-11-21T07:19:22;12.00;99.90
41447;DHT22;27185;52.040;4.490;2023-11-21T07:22:08;12.10;99.90
41447;DHT22;27185;52.040;4.490;2023-11-21T07:24:55;12.10;99.90
41447;DHT22;27185;52.040;4.490;2023-11-21T07:27:41;12.20;99.90
41447;DHT22;27185;52.040;4.490;2023-11-21T07:30:27;12.20;99.90
41447;DHT22;27185;52.040;4.490;2023-11-21T07:33:14;12.30;99.90
41447;DHT22;27185;52.040;4.490;2023-11-21T07:35:59;12.30;99.90
41447;DHT22;27185;52.040;4.490;2023-11-21T07:38:45;12.40;99.90
41447;DHT22;27185;52.040;4.490;2023-11-21T07:41:30;12.40;99.90
41447;DHT22;27185;52.040;4.490;2023-11-21T07:44:17;12.40;99.90
41447;DHT22;27185;52.040;4.490;2023-11-21T07:47:03;12.40;99.90
41447;DHT22;27185;52.040;4.490;2023-11-21T07:49:50;12.50;99.90
41447;DHT22;27185;52.040;4.490;2023-11-21T07:52:35;12.50;99.90
41447;DHT22;27185;52.040;4.490;2023-11-21T07:55:21;12.50;99.90
41447;DHT22;27185;52.040;4.490;2023-11-21T07:58:07;12.60;99.90
41447;DHT22;27185;52.040;4.490;2023-11-21T08:00:52;12.60;99.90
41447;DHT22;27185;52.040;4.490;2023-11-21T08:03:39;12.60;99.90
41447;DHT22;27185;52.040;4.490;2023-11-21T08:06:24;12.70;99.90
41447;DHT22;27185;52.040;4.490;2023-11-21T08:09:11;12.70;99.90
41447;DHT22;27185;52.040;4.490;2023-11-21T08:11:57;12.80;99.90
41447;DHT22;27185;52.040;4.490;2023-11-21T08:14:43;12.80;99.90
41447;DHT22;27185;52.040;4.490;2023-11-21T08:17:30;12.90;99.90
41447;DHT22;27185;52.040;4.490;2023-11-21T08:20:17;12.90;99.90
41447;DHT22;27185;52.040;4.490;2023-11-21T08:23:04;12.90;99.90
41447;DHT22;27185;52.040;4.490;2023-11-21T08:25:51;13.00;99.90
41447;DHT22;27185;52.040;4.490;2023-11-21T08:28:36;13.00;99.90
41447;DHT22;27185;52.040;4.490;2023-11-21T08:31:26;13.10;99.90
41447;DHT22;27185;52.040;4.490;2023-11-21T08:34:12;13.10;99.90
41447;DHT22;27185;52.040;4.490;2023-11-21T08:36:59;13.10;99.90
41447;DHT22;27185;52.040;4.490;2023-11-21T08:39:47;13.20;99.90
41447;DHT22;27185;52.040;4.490;2023-11-21T08:42:33;13.20;99.90
41447;DHT22;27185;52.040;4.490;2023-11-21T08:45:21;13.20;99.90
41447;DHT22;27185;52.040;4.490;2023-11-21T08:48:07;13.20;99.90
41447;DHT22;27185;52.040;4.490;2023-11-21T08:50:53;13.30;99.90
41447;DHT22;27185;52.040;4.490;2023-11-21T08:53:39;13.30;99.90
41447;DHT22;27185;52.040;4.490;2023-11-21T08:56:25;13.30;99.90
41447;DHT22;27185;52.040;4.490;2023-11-21T08:59:10;13.40;99.90
41447;DHT22;27185;52.040;4.490;2023-11-21T09:01:56;13.40;99.90
41447;DHT22;27185;52.040;4.490;2023-11-21T09:04:41;13.30;99.90
41447;DHT22;27185;52.040;4.490;2023-11-21T09:07:27;13.40;99.90
41447;DHT22;27185;52.040;4.490;2023-11-21T09:10:13;13.40;99.90
41447;DHT22;27185;52.040;4.490;2023-11-21T09:12:58;13.40;99.90
41447;DHT22;27185;52.040;4.490;2023-11-21T09:15:44;13.40;99.90
41447;DHT22;27185;52.040;4.490;2023-11-21T09:18:31;13.40;99.90
41447;DHT22;27185;52.040;4.490;2023-11-21T09:21:17;13.40;99.90
41447;DHT22;27185;52.040;4.490;2023-11-21T09:24:03;13.40;99.90
41447;DHT22;27185;52.040;4.490;2023-11-21T09:26:49;13.40;99.90
41447;DHT22;27185;52.040;4.490;2023-11-21T09:29:35;13.30;99.90
41447;DHT22;27185;52.040;4.490;2023-11-21T09:32:22;13.40;99.90
41447;DHT22;27185;52.040;4.490;2023-11-21T09:35:08;13.40;99.90
41447;DHT22;27185;52.040;4.490;2023-11-21T09:37:54;13.40;99.90
41447;DHT22;27185;52.040;4.490;2023-11-21T09:40:40;13.40;99.90
41447;DHT22;27185;52.040;4.490;2023-11-21T09:43:28;13.40;99.90
41447;DHT22;27185;52.040;4.490;2023-11-21T09:46:16;13.50;99.90
41447;DHT22;27185;52.040;4.490;2023-11-21T09:49:09;13.50;99.90
41447;DHT22;27185;52.040;4.490;2023-11-21T09:51:58;13.50;99.90
41447;DHT22;27185;52.040;4.490;2023-11-21T09:54:50;13.50;99.90
41447;DHT22;27185;52.040;4.490;2023-11-21T09:57:38;13.50;99.90
41447;DHT22;27185;52.040;4.490;2023-11-21T10:00:24;13.60;99.90
41447;DHT22;27185;52.040;4.490;2023-11-21T10:03:10;13.50;99.90
41447;DHT22;27185;52.040;4.490;2023-11-21T10:05:57;13.60;99.90
41447;DHT22;27185;52.040;4.490;2023-11-21T10:08:47;13.60;99.90
41447;DHT22;27185;52.040;4.490;2023-11-21T10:11:35;13.60;99.90
41447;DHT22;27185;52.040;4.490;2023-11-21T10:14:24;13.60;99.90
41447;DHT22;27185;52.040;4.490;2023-11-21T10:17:15;13.50;99.90
41447;DHT22;27185;52.040;4.490;2023-11-21T10:20:05;13.50;99.90
41447;DHT22;27185;52.040;4.490;2023-11-21T10:22:56;13.50;99.90
41447;DHT22;27185;52.040;4.490;2023-11-21T10:25:42;13.50;99.90
41447;DHT22;27185;52.040;4.490;2023-11-21T10:28:27;13.50;99.90
41447;DHT22;27185;52.040;4.490;2023-11-21T10:31:13;13.50;99.90
41447;DHT22;27185;52.040;4.490;2023-11-21T10:34:20;13.50;99.90
41447;DHT22;27185;52.040;4.490;2023-11-21T10:37:11;13.50;99.90
41447;DHT22;27185;52.040;4.490;2023-11-21T10:39:58;13.40;99.90
41447;DHT22;27185;52.040;4.490;2023-11-21T10:42:44;13.40;99.90
41447;DHT22;27185;52.040;4.490;2023-11-21T10:45:29;13.40;99.90
41447;DHT22;27185;52.040;4.490;2023-11-21T10:48:15;13.40;99.90
41447;DHT22;27185;52.040;4.490;2023-11-21T10:51:06;13.40;99.90
41447;DHT22;27185;52.040;4.490;2023-11-21T10:53:55;13.30;99.90
41447;DHT22;27185;52.040;4.490;2023-11-21T10:56:41;13.30;99.90
41447;DHT22;27185;52.040;4.490;2023-11-21T10:59:30;13.30;99.90
41447;DHT22;27185;52.040;4.490;2023-11-21T11:02:25;13.30;99.90
41447;DHT22;27185;52.040;4.490;2023-11-21T11:05:18;13.20;99.90
41447;DHT22;27185;52.040;4.490;2023-11-21T11:08:06;13.20;99.90
41447;DHT22;27185;52.040;4.490;2023-11-21T11:10:53;13.20;99.90
41447;DHT22;27185;52.040;4.490;2023-11-21T11:13:39;13.30;99.90
41447;DHT22;27185;52.040;4.490;2023-11-21T11:16:28;13.20;99.90
41447;DHT22;27185;52.040;4.490;2023-11-21T11:19:14;13.30;99.90
41447;DHT22;27185;52.040;4.490;2023-11-21T11:22:13;13.30;99.90
41447;DHT22;27185;52.040;4.490;2023-11-21T11:25:09;13.30;99.90
41447;DHT22;27185;52.040;4.490;2023-11-21T11:28:15;13.30;99.90
41447;DHT22;27185;52.040;4.490;2023-11-21T11:34:01;13.40;99.90
41447;DHT22;27185;52.040;4.490;2023-11-21T11:37:03;13.50;99.90
41447;DHT22;27185;52.040;4.490;2023-11-21T11:39:54;13.50;99.90
41447;DHT22;27185;52.040;4.490;2023-11-21T11:42:57;13.50;99.90
41447;DHT22;27185;52.040;4.490;2023-11-21T11:45:48;13.50;99.90
41447;DHT22;27185;52.040;4.490;2023-11-21T11:48:38;13.50;99.90
41447;DHT22;27185;52.040;4.490;2023-11-21T11:51:25;13.50;99.90
41447;DHT22;27185;52.040;4.490;2023-11-21T11:54:11;13.50;99.90
41447;DHT22;27185;52.040;4.490;2023-11-21T11:56:59;13.50;99.90
41447;DHT22;27185;52.040;4.490;2023-11-21T12:00:07;13.60;99.90
41447;DHT22;27185;52.040;4.490;2023-11-21T12:02:57;13.60;99.90
41447;DHT22;27185;52.040;4.490;2023-11-21T12:05:46;13.60;99.90
41447;DHT22;27185;52.040;4.490;2023-11-21T12:08:32;13.60;99.90
41447;DHT22;27185;52.040;4.490;2023-11-21T12:11:18;13.70;99.90
41447;DHT22;27185;52.040;4.490;2023-11-21T12:14:04;13.70;99.90
41447;DHT22;27185;52.040;4.490;2023-11-21T12:16:51;13.60;99.90
41447;DHT22;27185;52.040;4.490;2023-11-21T12:19:37;13.60;99.90
41447;DHT22;27185;52.040;4.490;2023-11-21T12:22:23;13.60;99.90
41447;DHT22;27185;52.040;4.490;2023-11-21T12:25:10;13.60;99.90
41447;DHT22;27185;52.040;4.490;2023-11-21T12:28:02;13.60;99.90
41447;DHT22;27185;52.040;4.490;2023-11-21T12:30:48;13.60;99.90
41447;DHT22;27185;52.040;4.490;2023-11-21T12:33:34;13.60;99.90
41447;DHT22;27185;52.040;4.490;2023-11-21T12:36:21;13.60;99.90
41447;DHT22;27185;52.040;4.490;2023-11-21T12:39:07;13.60;99.90
41447;DHT22;27185;52.040;4.490;2023-11-21T12:41:55;13.60;99.90
41447;DHT22;27185;52.040;4.490;2023-11-21T12:44:40;13.60;99.90
41447;DHT22;27185;52.040;4.490;2023-11-21T12:47:27;13.60;99.90
41447;DHT22;27185;52.040;4.490;2023-11-21T12:50:13;13.60;99.90
41447;DHT22;27185;52.040;4.490;2023-11-21T12:53:03;13.60;99.90
41447;DHT22;27185;52.040;4.490;2023-11-21T12:55:50;13.60;99.90
41447;DHT22;27185;52.040;4.490;2023-11-21T12:58:40;13.60;99.90
41447;DHT22;27185;52.040;4.490;2023-11-21T13:01:31;13.60;99.90
41447;DHT22;27185;52.040;4.490;2023-11-21T13:04:17;13.60;99.90
41447;DHT22;27185;52.040;4.490;2023-11-21T13:07:05;13.60;99.90
41447;DHT22;27185;52.040;4.490;2023-11-21T13:10:00;13.60;99.90
41447;DHT22;27185;52.040;4.490;2023-11-21T13:12:51;13.60;99.90
41447;DHT22;27185;52.040;4.490;2023-11-21T13:15:39;13.60;99.90
41447;DHT22;27185;52.040;4.490;2023-11-21T13:18:27;13.60;99.90
41447;DHT22;27185;52.040;4.490;2023-11-21T13:21:12;13.60;99.90
41447;DHT22;27185;52.040;4.490;2023-11-21T13:23:58;13.60;99.90
41447;DHT22;27185;52.040;4.490;2023-11-21T13:26:44;13.60;99.90
41447;DHT22;27185;52.040;4.490;2023-11-21T13:29:32;13.60;99.90
41447;DHT22;27185;52.040;4.490;2023-11-21T13:32:20;13.70;99.90
41447;DHT22;27185;52.040;4.490;2023-11-21T13:35:07;13.70;99.90
41447;DHT22;27185;52.040;4.490;2023-11-21T13:38:07;13.60;99.90
41447;DHT22;27185;52.040;4.490;2023-11-21T13:40:53;13.70;99.90
41447;DHT22;27185;52.040;4.490;2023-11-21T13:43:40;13.70;99.90
41447;DHT22;27185;52.040;4.490;2023-11-21T13:46:29;13.60;99.90
41447;DHT22;27185;52.040;4.490;2023-11-21T13:49:20;13.60;99.90
41447;DHT22;27185;52.040;4.490;2023-11-21T13:52:06;13.60;99.90
41447;DHT22;27185;52.040;4.490;2023-11-21T13:54:52;13.60;99.90
41447;DHT22;27185;52.040;4.490;2023-11-21T13:57:38;13.60;99.90
41447;DHT22;27185;52.040;4.490;2023-11-21T14:00:24;13.60;99.90
41447;DHT22;27185;52.040;4.490;2023-11-21T14:03:30;13.50;99.90
41447;DHT22;27185;52.040;4.490;2023-11-21T14:06:24;13.50;99.90
41447;DHT22;27185;52.040;4.490;2023-11-21T14:09:22;13.50;99.90
41447;DHT22;27185;52.040;4.490;2023-11-21T14:12:11;13.50;99.90
41447;DHT22;27185;52.040;4.490;2023-11-21T14:14:58;13.40;99.90
41447;DHT22;27185;52.040;4.490;2023-11-21T14:17:44;13.40;99.90
41447;DHT22;27185;52.040;4.490;2023-11-21T14:20:30;13.40;99.90
41447;DHT22;27185;52.040;4.490;2023-11-21T14:23:15;13.40;99.90
41447;DHT22;27185;52.040;4.490;2023-11-21T14:26:01;13.40;99.90
41447;DHT22;27185;52.040;4.490;2023-11-21T14:28:47;13.30;99.90
41447;DHT22;27185;52.040;4.490;2023-11-21T14:31:34;13.20;99.90
41447;DHT22;27185;52.040;4.490;2023-11-21T14:34:20;13.20;99.90
41447;DHT22;27185;52.040;4.490;2023-11-21T14:37:06;13.10;99.90
41447;DHT22;27185;52.040;4.490;2023-11-21T14:39:52;13.00;99.90
41447;DHT22;27185;52.040;4.490;2023-11-21T14:42:38;13.00;99.90
41447;DHT22;27185;52.040;4.490;2023-11-21T14:45:25;13.00;99.90
41447;DHT22;27185;52.040;4.490;2023-11-21T14:48:12;13.00;99.90
41447;DHT22;27185;52.040;4.490;2023-11-21T14:51:01;12.90;99.90
41447;DHT22;27185;52.040;4.490;2023-11-21T14:53:46;12.90;99.90
41447;DHT22;27185;52.040;4.490;2023-11-21T14:56:45;12.80;99.90
41447;DHT22;27185;52.040;4.490;2023-11-21T14:59:31;12.80;99.90
41447;DHT22;27185;52.040;4.490;2023-11-21T15:02:21;12.70;99.90
41447;DHT22;27185;52.040;4.490;2023-11-21T15:05:07;12.70;99.90
41447;DHT22;27185;52.040;4.490;2023-11-21T15:07:58;12.60;99.90
41447;DHT22;27185;52.040;4.490;2023-11-21T15:10:59;12.60;99.90
41447;DHT22;27185;52.040;4.490;2023-11-21T15:13:44;12.60;99.90
41447;DHT22;27185;52.040;4.490;2023-11-21T15:16:30;12.50;99.90
41447;DHT22;27185;52.040;4.490;2023-11-21T15:19:16;12.50;99.90
41447;DHT22;27185;52.040;4.490;2023-11-21T15:22:04;12.50;99.90
41447;DHT22;27185;52.040;4.490;2023-11-21T15:24:52;12.40;99.90
41447;DHT22;27185;52.040;4.490;2023-11-21T15:27:39;12.40;99.90
41447;DHT22;27185;52.040;4.490;2023-11-21T15:30:26;12.40;99.90
41447;DHT22;27185;52.040;4.490;2023-11-21T15:33:12;12.30;99.90
41447;DHT22;27185;52.040;4.490;2023-11-21T15:35:58;12.30;99.90
41447;DHT22;27185;52.040;4.490;2023-11-21T15:38:44;12.30;99.90
41447;DHT22;27185;52.040;4.490;2023-11-21T15:41:29;12.30;99.90
41447;DHT22;27185;52.040;4.490;2023-11-21T15:44:15;12.30;99.90
41447;DHT22;27185;52.040;4.490;2023-11-21T15:47:01;12.30;99.90
41447;DHT22;27185;52.040;4.490;2023-11-21T15:49:49;12.30;99.90
41447;DHT22;27185;52.040;4.490;2023-11-21T15:52:35;12.30;99.90
41447;DHT22;27185;52.040;4.490;2023-11-21T15:55:20;12.20;99.90
41447;DHT22;27185;52.040;4.490;2023-11-21T15:58:06;12.20;99.90
41447;DHT22;27185;52.040;4.490;2023-11-21T16:00:52;12.10;99.90
41447;DHT22;27185;52.040;4.490;2023-11-21T16:03:37;12.10;99.90
41447;DHT22;27185;52.040;4.490;2023-11-21T16:06:23;12.00;99.90
41447;DHT22;27185;52.040;4.490;2023-11-21T16:09:10;12.00;99.90
41447;DHT22;27185;52.040;4.490;2023-11-21T16:12:07;12.00;99.90
41447;DHT22;27185;52.040;4.490;2023-11-21T16:14:53;12.00;99.90
41447;DHT22;27185;52.040;4.490;2023-11-21T16:17:38;11.90;99.90
41447;DHT22;27185;52.040;4.490;2023-11-21T16:20:27;11.90;99.90
41447;DHT22;27185;52.040;4.490;2023-11-21T16:23:12;11.90;99.90
41447;DHT22;27185;52.040;4.490;2023-11-21T16:25:58;11.80;99.90
41447;DHT22;27185;52.040;4.490;2023-11-21T16:28:43;11.80;99.90
41447;DHT22;27185;52.040;4.490;2023-11-21T16:31:29;11.80;99.90
41447;DHT22;27185;52.040;4.490;2023-11-21T16:34:16;11.80;99.90
41447;DHT22;27185;52.040;4.490;2023-11-21T16:37:04;11.80;99.90
41447;DHT22;27185;52.040;4.490;2023-11-21T16:39:50;11.70;99.90
41447;DHT22;27185;52.040;4.490;2023-11-21T16:42:36;11.70;99.90
41447;DHT22;27185;52.040;4.490;2023-11-21T16:45:23;11.70;99.90
41447;DHT22;27185;52.040;4.490;2023-11-21T16:48:09;11.70;99.90
41447;DHT22;27185;52.040;4.490;2023-11-21T16:50:54;11.70;99.90
41447;DHT22;27185;52.040;4.490;2023-11-21T16:53:40;11.60;99.90
41447;DHT22;27185;52.040;4.490;2023-11-21T16:56:28;11.70;99.90
41447;DHT22;27185;52.040;4.490;2023-11-21T16:59:13;11.60;99.90
41447;DHT22;27185;52.040;4.490;2023-11-21T17:01:59;11.60;99.90
41447;DHT22;27185;52.040;4.490;2023-11-21T17:04:45;11.60;99.90
41447;DHT22;27185;52.040;4.490;2023-11-21T17:07:32;11.50;99.90
41447;DHT22;27185;52.040;4.490;2023-11-21T17:10:18;11.50;99.90
41447;DHT22;27185;52.040;4.490;2023-11-21T17:13:05;11.50;99.90
41447;DHT22;27185;52.040;4.490;2023-11-21T17:15:51;11.50;99.90
41447;DHT22;27185;52.040;4.490;2023-11-21T17:18:36;11.40;99.90
41447;DHT22;27185;52.040;4.490;2023-11-21T17:21:23;11.40;99.90
41447;DHT22;27185;52.040;4.490;2023-11-21T17:24:09;11.40;99.90
41447;DHT22;27185;52.040;4.490;2023-11-21T17:26:55;11.40;99.90
41447;DHT22;27185;52.040;4.490;2023-11-21T17:29:41;11.40;99.90
41447;DHT22;27185;52.040;4.490;2023-11-21T17:32:26;11.40;99.90
41447;DHT22;27185;52.040;4.490;2023-11-21T17:35:13;11.40;99.90
41447;DHT22;27185;52.040;4.490;2023-11-21T17:37:58;11.40;99.90